Agency, Iowa
Current Conditions -  °F | °C
As of 2:53 AM on Friday 28 Nov 2014 (Local Time) from KOTM Reporting Station
Broken Clouds Broken Clouds  
Wind Chill:   Ceiling: 12000
Heat Index: 18°   Visibility: 10mi
Dew Point:   Wind: 12mph
Humidity: 68%   Direction: 140°SE
Pressure: 30.2"   Gusts: NA
Location:  41°N, 92.31°W
Report Text: KOTM 280853Z AUTO 14010KT 10SM BKN120 M08/M13 A3020 RMK AO2 SLP243 T10781128 56041
Loading
Personal Weather Stations






























Interactive Weather Map New forecast layout! Learn more

10-Day Weather Forecast

Advertisements
Track Severe Weather on mobile